sensor_id;sensor_type;location;lat;lon;timestamp;P1;durP1;ratioP1;P2;durP2;ratioP2
3677;SDS011;1855;50.934;6.958;2023-03-21T00:01:10;5.32;;;3.50;;
3677;SDS011;1855;50.934;6.958;2023-03-21T00:03:37;5.15;;;3.55;;
3677;SDS011;1855;50.934;6.958;2023-03-21T00:06:05;5.95;;;4.55;;
3677;SDS011;1855;50.934;6.958;2023-03-21T00:08:33;6.90;;;3.70;;
3677;SDS011;1855;50.934;6.958;2023-03-21T00:11:00;7.28;;;4.20;;
3677;SDS011;1855;50.934;6.958;2023-03-21T00:13:30;5.97;;;3.80;;
3677;SDS011;1855;50.934;6.958;2023-03-21T00:16:02;4.85;;;4.20;;
3677;SDS011;1855;50.934;6.958;2023-03-21T00:18:30;4.32;;;3.80;;
3677;SDS011;1855;50.934;6.958;2023-03-21T00:20:57;4.83;;;4.30;;
3677;SDS011;1855;50.934;6.958;2023-03-21T00:23:24;5.17;;;3.60;;
3677;SDS011;1855;50.934;6.958;2023-03-21T00:25:51;6.35;;;3.78;;
3677;SDS011;1855;50.934;6.958;2023-03-21T00:28:18;6.82;;;4.20;;
3677;SDS011;1855;50.934;6.958;2023-03-21T00:30:47;5.70;;;3.92;;
3677;SDS011;1855;50.934;6.958;2023-03-21T00:33:14;4.97;;;3.50;;
3677;SDS011;1855;50.934;6.958;2023-03-21T00:35:44;6.60;;;3.70;;
3677;SDS011;1855;50.934;6.958;2023-03-21T00:38:12;5.75;;;3.80;;
3677;SDS011;1855;50.934;6.958;2023-03-21T00:40:40;6.35;;;3.40;;
3677;SDS011;1855;50.934;6.958;2023-03-21T00:43:06;7.10;;;3.63;;
3677;SDS011;1855;50.934;6.958;2023-03-21T00:45:33;6.03;;;4.00;;
3677;SDS011;1855;50.934;6.958;2023-03-21T00:48:02;7.47;;;3.80;;
3677;SDS011;1855;50.934;6.958;2023-03-21T00:50:30;5.57;;;3.67;;
3677;SDS011;1855;50.934;6.958;2023-03-21T00:52:58;6.93;;;3.72;;
3677;SDS011;1855;50.934;6.958;2023-03-21T00:55:25;6.37;;;4.70;;
3677;SDS011;1855;50.934;6.958;2023-03-21T00:57:51;4.70;;;3.80;;
3677;SDS011;1855;50.934;6.958;2023-03-21T01:00:18;5.80;;;4.17;;
3677;SDS011;1855;50.934;6.958;2023-03-21T01:02:46;6.13;;;3.97;;
3677;SDS011;1855;50.934;6.958;2023-03-21T01:05:22;5.40;;;3.65;;
3677;SDS011;1855;50.934;6.958;2023-03-21T01:08:04;5.43;;;4.15;;
3677;SDS011;1855;50.934;6.958;2023-03-21T01:10:31;5.30;;;4.00;;
3677;SDS011;1855;50.934;6.958;2023-03-21T01:12:58;5.35;;;3.80;;
3677;SDS011;1855;50.934;6.958;2023-03-21T01:15:25;4.38;;;3.75;;
3677;SDS011;1855;50.934;6.958;2023-03-21T01:17:52;5.40;;;3.60;;
3677;SDS011;1855;50.934;6.958;2023-03-21T01:20:18;6.18;;;3.85;;
3677;SDS011;1855;50.934;6.958;2023-03-21T01:22:47;6.03;;;4.20;;
3677;SDS011;1855;50.934;6.958;2023-03-21T01:25:13;5.28;;;4.75;;
3677;SDS011;1855;50.934;6.958;2023-03-21T01:27:40;6.30;;;4.00;;
3677;SDS011;1855;50.934;6.958;2023-03-21T01:30:07;6.18;;;4.10;;
3677;SDS011;1855;50.934;6.958;2023-03-21T01:32:35;5.95;;;3.33;;
3677;SDS011;1855;50.934;6.958;2023-03-21T01:35:02;4.55;;;3.83;;
3677;SDS011;1855;50.934;6.958;2023-03-21T01:37:29;6.22;;;4.30;;
3677;SDS011;1855;50.934;6.958;2023-03-21T01:39:57;5.80;;;4.45;;
3677;SDS011;1855;50.934;6.958;2023-03-21T01:42:24;9.20;;;4.25;;
3677;SDS011;1855;50.934;6.958;2023-03-21T01:44:52;6.40;;;3.80;;
3677;SDS011;1855;50.934;6.958;2023-03-21T01:47:20;6.05;;;4.30;;
3677;SDS011;1855;50.934;6.958;2023-03-21T01:49:48;5.90;;;4.00;;
3677;SDS011;1855;50.934;6.958;2023-03-21T01:52:17;6.65;;;4.43;;
3677;SDS011;1855;50.934;6.958;2023-03-21T01:54:48;5.20;;;3.88;;
3677;SDS011;1855;50.934;6.958;2023-03-21T01:57:18;6.43;;;4.80;;
3677;SDS011;1855;50.934;6.958;2023-03-21T01:59:48;6.93;;;4.00;;
3677;SDS011;1855;50.934;6.958;2023-03-21T02:02:19;6.03;;;4.60;;
3677;SDS011;1855;50.934;6.958;2023-03-21T02:04:50;6.53;;;4.90;;
3677;SDS011;1855;50.934;6.958;2023-03-21T02:07:21;5.75;;;4.72;;
3677;SDS011;1855;50.934;6.958;2023-03-21T02:09:52;7.25;;;4.70;;
3677;SDS011;1855;50.934;6.958;2023-03-21T02:12:21;7.22;;;4.55;;
3677;SDS011;1855;50.934;6.958;2023-03-21T02:14:49;6.15;;;4.50;;
3677;SDS011;1855;50.934;6.958;2023-03-21T02:17:18;8.50;;;4.40;;
3677;SDS011;1855;50.934;6.958;2023-03-21T02:29:08;6.85;;;4.40;;
3677;SDS011;1855;50.934;6.958;2023-03-21T02:31:46;5.32;;;4.40;;
3677;SDS011;1855;50.934;6.958;2023-03-21T02:34:35;6.35;;;4.57;;
3677;SDS011;1855;50.934;6.958;2023-03-21T02:37:34;7.40;;;4.60;;
3677;SDS011;1855;50.934;6.958;2023-03-21T02:40:06;7.45;;;4.80;;
3677;SDS011;1855;50.934;6.958;2023-03-21T02:42:42;6.05;;;4.32;;
3677;SDS011;1855;50.934;6.958;2023-03-21T02:45:18;6.95;;;4.15;;
3677;SDS011;1855;50.934;6.958;2023-03-21T02:47:47;5.55;;;4.50;;
3677;SDS011;1855;50.934;6.958;2023-03-21T02:50:17;6.60;;;5.00;;
3677;SDS011;1855;50.934;6.958;2023-03-21T02:52:51;7.60;;;4.90;;
3677;SDS011;1855;50.934;6.958;2023-03-21T02:55:21;8.07;;;4.60;;
3677;SDS011;1855;50.934;6.958;2023-03-21T02:57:50;6.25;;;4.40;;
3677;SDS011;1855;50.934;6.958;2023-03-21T03:00:20;8.93;;;4.53;;
3677;SDS011;1855;50.934;6.958;2023-03-21T03:02:48;7.65;;;4.80;;
3677;SDS011;1855;50.934;6.958;2023-03-21T03:05:16;5.95;;;4.10;;
3677;SDS011;1855;50.934;6.958;2023-03-21T03:07:52;6.72;;;3.60;;
3677;SDS011;1855;50.934;6.958;2023-03-21T03:10:35;7.25;;;4.35;;
3677;SDS011;1855;50.934;6.958;2023-03-21T03:13:11;6.85;;;4.50;;
3677;SDS011;1855;50.934;6.958;2023-03-21T03:15:48;7.55;;;3.92;;
3677;SDS011;1855;50.934;6.958;2023-03-21T03:18:23;7.07;;;4.35;;
3677;SDS011;1855;50.934;6.958;2023-03-21T03:21:03;4.95;;;3.83;;
3677;SDS011;1855;50.934;6.958;2023-03-21T03:23:36;7.13;;;4.70;;
3677;SDS011;1855;50.934;6.958;2023-03-21T03:26:10;7.03;;;4.20;;
3677;SDS011;1855;50.934;6.958;2023-03-21T03:28:41;7.80;;;4.40;;
3677;SDS011;1855;50.934;6.958;2023-03-21T03:31:11;8.27;;;4.88;;
3677;SDS011;1855;50.934;6.958;2023-03-21T03:33:42;7.15;;;4.60;;
3677;SDS011;1855;50.934;6.958;2023-03-21T03:36:12;7.23;;;4.40;;
3677;SDS011;1855;50.934;6.958;2023-03-21T03:38:42;6.37;;;4.67;;
3677;SDS011;1855;50.934;6.958;2023-03-21T03:41:13;7.57;;;4.50;;
3677;SDS011;1855;50.934;6.958;2023-03-21T03:43:48;7.65;;;4.10;;
3677;SDS011;1855;50.934;6.958;2023-03-21T03:46:20;6.07;;;4.22;;
3677;SDS011;1855;50.934;6.958;2023-03-21T03:48:53;6.40;;;4.20;;
3677;SDS011;1855;50.934;6.958;2023-03-21T03:51:22;6.25;;;4.60;;
3677;SDS011;1855;50.934;6.958;2023-03-21T03:53:54;6.25;;;4.60;;
3677;SDS011;1855;50.934;6.958;2023-03-21T03:56:24;6.10;;;4.30;;
3677;SDS011;1855;50.934;6.958;2023-03-21T03:58:52;6.40;;;4.60;;
3677;SDS011;1855;50.934;6.958;2023-03-21T04:01:19;7.80;;;4.88;;
3677;SDS011;1855;50.934;6.958;2023-03-21T04:03:46;6.72;;;5.07;;
3677;SDS011;1855;50.934;6.958;2023-03-21T04:06:14;7.07;;;4.45;;
3677;SDS011;1855;50.934;6.958;2023-03-21T04:08:41;6.22;;;4.47;;
3677;SDS011;1855;50.934;6.958;2023-03-21T04:11:11;7.88;;;4.53;;
3677;SDS011;1855;50.934;6.958;2023-03-21T04:13:39;6.88;;;4.35;;
3677;SDS011;1855;50.934;6.958;2023-03-21T04:16:06;4.95;;;4.45;;
3677;SDS011;1855;50.934;6.958;2023-03-21T04:18:33;7.18;;;4.10;;
3677;SDS011;1855;50.934;6.958;2023-03-21T04:21:05;8.60;;;4.40;;
3677;SDS011;1855;50.934;6.958;2023-03-21T04:23:33;6.70;;;4.20;;
3677;SDS011;1855;50.934;6.958;2023-03-21T04:26:00;8.55;;;4.60;;
3677;SDS011;1855;50.934;6.958;2023-03-21T04:28:29;6.38;;;4.70;;
3677;SDS011;1855;50.934;6.958;2023-03-21T04:30:56;7.05;;;4.10;;
3677;SDS011;1855;50.934;6.958;2023-03-21T04:33:23;6.00;;;4.13;;
3677;SDS011;1855;50.934;6.958;2023-03-21T04:35:50;5.95;;;4.40;;
3677;SDS011;1855;50.934;6.958;2023-03-21T04:38:20;6.93;;;4.45;;
3677;SDS011;1855;50.934;6.958;2023-03-21T04:40:47;7.38;;;4.50;;
3677;SDS011;1855;50.934;6.958;2023-03-21T04:43:13;7.70;;;4.60;;
3677;SDS011;1855;50.934;6.958;2023-03-21T04:45:42;6.80;;;4.60;;
3677;SDS011;1855;50.934;6.958;2023-03-21T04:48:08;7.60;;;4.80;;
3677;SDS011;1855;50.934;6.958;2023-03-21T04:50:35;6.43;;;4.28;;
3677;SDS011;1855;50.934;6.958;2023-03-21T04:53:02;6.72;;;4.80;;
3677;SDS011;1855;50.934;6.958;2023-03-21T04:55:29;6.13;;;4.70;;
3677;SDS011;1855;50.934;6.958;2023-03-21T04:57:56;7.13;;;4.60;;
3677;SDS011;1855;50.934;6.958;2023-03-21T05:00:23;6.67;;;4.10;;
3677;SDS011;1855;50.934;6.958;2023-03-21T05:02:52;8.18;;;4.80;;
3677;SDS011;1855;50.934;6.958;2023-03-21T05:05:19;7.28;;;4.85;;
3677;SDS011;1855;50.934;6.958;2023-03-21T05:07:45;5.43;;;4.20;;
3677;SDS011;1855;50.934;6.958;2023-03-21T05:10:12;7.43;;;5.05;;
3677;SDS011;1855;50.934;6.958;2023-03-21T05:12:39;7.68;;;4.80;;
3677;SDS011;1855;50.934;6.958;2023-03-21T05:15:06;5.77;;;4.60;;
3677;SDS011;1855;50.934;6.958;2023-03-21T05:17:34;9.68;;;4.90;;
3677;SDS011;1855;50.934;6.958;2023-03-21T05:20:03;7.00;;;4.70;;
3677;SDS011;1855;50.934;6.958;2023-03-21T05:22:33;7.15;;;4.55;;
3677;SDS011;1855;50.934;6.958;2023-03-21T05:25:05;6.28;;;4.55;;
3677;SDS011;1855;50.934;6.958;2023-03-21T05:27:32;7.50;;;4.90;;
3677;SDS011;1855;50.934;6.958;2023-03-21T05:30:04;10.45;;;5.15;;
3677;SDS011;1855;50.934;6.958;2023-03-21T05:32:32;10.05;;;4.60;;
3677;SDS011;1855;50.934;6.958;2023-03-21T05:34:59;6.90;;;4.28;;
3677;SDS011;1855;50.934;6.958;2023-03-21T05:37:28;7.20;;;4.20;;
3677;SDS011;1855;50.934;6.958;2023-03-21T05:39:54;8.50;;;5.07;;
3677;SDS011;1855;50.934;6.958;2023-03-21T05:42:21;7.53;;;4.90;;
3677;SDS011;1855;50.934;6.958;2023-03-21T05:44:48;6.85;;;5.35;;
3677;SDS011;1855;50.934;6.958;2023-03-21T05:47:15;7.07;;;4.50;;
3677;SDS011;1855;50.934;6.958;2023-03-21T05:49:43;6.75;;;4.50;;
3677;SDS011;1855;50.934;6.958;2023-03-21T05:52:11;7.10;;;4.68;;
3677;SDS011;1855;50.934;6.958;2023-03-21T05:54:39;8.02;;;5.20;;
3677;SDS011;1855;50.934;6.958;2023-03-21T05:57:06;8.43;;;5.10;;
3677;SDS011;1855;50.934;6.958;2023-03-21T05:59:33;7.32;;;4.75;;
3677;SDS011;1855;50.934;6.958;2023-03-21T06:02:00;7.40;;;5.00;;
3677;SDS011;1855;50.934;6.958;2023-03-21T06:04:27;8.48;;;5.03;;
3677;SDS011;1855;50.934;6.958;2023-03-21T06:06:54;6.85;;;4.80;;
3677;SDS011;1855;50.934;6.958;2023-03-21T06:09:21;8.23;;;4.95;;
3677;SDS011;1855;50.934;6.958;2023-03-21T06:11:51;9.10;;;5.40;;
3677;SDS011;1855;50.934;6.958;2023-03-21T06:14:20;8.95;;;5.20;;
3677;SDS011;1855;50.934;6.958;2023-03-21T06:16:47;6.22;;;5.05;;
3677;SDS011;1855;50.934;6.958;2023-03-21T06:19:14;6.57;;;4.55;;
3677;SDS011;1855;50.934;6.958;2023-03-21T06:21:41;8.05;;;5.30;;
3677;SDS011;1855;50.934;6.958;2023-03-21T06:24:08;7.45;;;5.30;;
3677;SDS011;1855;50.934;6.958;2023-03-21T06:26:35;7.80;;;5.00;;
3677;SDS011;1855;50.934;6.958;2023-03-21T06:31:31;7.72;;;5.00;;
3677;SDS011;1855;50.934;6.958;2023-03-21T06:33:58;7.95;;;5.40;;
3677;SDS011;1855;50.934;6.958;2023-03-21T06:36:25;6.90;;;5.10;;
3677;SDS011;1855;50.934;6.958;2023-03-21T06:38:52;7.80;;;5.23;;
3677;SDS011;1855;50.934;6.958;2023-03-21T06:41:18;9.98;;;5.43;;
3677;SDS011;1855;50.934;6.958;2023-03-21T06:43:45;7.93;;;5.20;;
3677;SDS011;1855;50.934;6.958;2023-03-21T06:46:12;6.90;;;4.80;;
3677;SDS011;1855;50.934;6.958;2023-03-21T06:48:41;7.13;;;4.80;;
3677;SDS011;1855;50.934;6.958;2023-03-21T06:51:09;10.90;;;5.30;;
3677;SDS011;1855;50.934;6.958;2023-03-21T06:53:36;8.00;;;5.47;;
3677;SDS011;1855;50.934;6.958;2023-03-21T06:56:03;9.20;;;5.32;;
3677;SDS011;1855;50.934;6.958;2023-03-21T06:58:30;8.35;;;5.63;;
3677;SDS011;1855;50.934;6.958;2023-03-21T07:00:57;6.95;;;5.13;;
3677;SDS011;1855;50.934;6.958;2023-03-21T07:03:24;8.30;;;5.85;;
3677;SDS011;1855;50.934;6.958;2023-03-21T07:05:52;7.15;;;5.35;;
3677;SDS011;1855;50.934;6.958;2023-03-21T07:08:20;8.73;;;5.50;;
3677;SDS011;1855;50.934;6.958;2023-03-21T07:10:47;7.57;;;5.63;;
3677;SDS011;1855;50.934;6.958;2023-03-21T07:13:13;9.35;;;5.95;;
3677;SDS011;1855;50.934;6.958;2023-03-21T07:15:41;8.23;;;5.70;;
3677;SDS011;1855;50.934;6.958;2023-03-21T07:18:08;8.00;;;6.10;;
3677;SDS011;1855;50.934;6.958;2023-03-21T07:20:35;11.07;;;6.10;;
3677;SDS011;1855;50.934;6.958;2023-03-21T07:23:04;7.70;;;6.00;;
3677;SDS011;1855;50.934;6.958;2023-03-21T07:25:31;11.13;;;7.13;;
3677;SDS011;1855;50.934;6.958;2023-03-21T07:27:58;11.43;;;7.10;;
3677;SDS011;1855;50.934;6.958;2023-03-21T07:30:25;10.35;;;7.47;;
3677;SDS011;1855;50.934;6.958;2023-03-21T07:32:52;11.18;;;7.85;;
3677;SDS011;1855;50.934;6.958;2023-03-21T07:35:19;12.23;;;8.10;;
3677;SDS011;1855;50.934;6.958;2023-03-21T07:37:46;12.18;;;7.80;;
3677;SDS011;1855;50.934;6.958;2023-03-21T07:40:15;14.35;;;8.73;;
3677;SDS011;1855;50.934;6.958;2023-03-21T07:42:44;14.07;;;8.70;;
3677;SDS011;1855;50.934;6.958;2023-03-21T07:45:13;10.73;;;8.48;;
3677;SDS011;1855;50.934;6.958;2023-03-21T07:47:46;12.02;;;8.40;;
3677;SDS011;1855;50.934;6.958;2023-03-21T07:50:13;11.02;;;8.50;;
3677;SDS011;1855;50.934;6.958;2023-03-21T07:52:40;11.15;;;8.95;;
3677;SDS011;1855;50.934;6.958;2023-03-21T07:55:07;10.45;;;8.60;;
3677;SDS011;1855;50.934;6.958;2023-03-21T07:57:36;14.05;;;9.40;;
3677;SDS011;1855;50.934;6.958;2023-03-21T08:00:03;14.40;;;10.50;;
3677;SDS011;1855;50.934;6.958;2023-03-21T08:02:31;12.60;;;9.05;;
3677;SDS011;1855;50.934;6.958;2023-03-21T08:04:57;15.77;;;10.15;;
3677;SDS011;1855;50.934;6.958;2023-03-21T08:07:24;15.82;;;9.95;;
3677;SDS011;1855;50.934;6.958;2023-03-21T08:09:52;13.60;;;9.57;;
3677;SDS011;1855;50.934;6.958;2023-03-21T08:12:18;12.75;;;10.07;;
3677;SDS011;1855;50.934;6.958;2023-03-21T08:14:46;12.32;;;9.25;;
3677;SDS011;1855;50.934;6.958;2023-03-21T08:17:13;14.68;;;10.02;;
3677;SDS011;1855;50.934;6.958;2023-03-21T08:19:40;15.10;;;10.00;;
3677;SDS011;1855;50.934;6.958;2023-03-21T08:22:07;13.07;;;10.10;;
3677;SDS011;1855;50.934;6.958;2023-03-21T08:24:34;15.70;;;10.50;;
3677;SDS011;1855;50.934;6.958;2023-03-21T08:27:01;14.90;;;10.60;;
3677;SDS011;1855;50.934;6.958;2023-03-21T08:29:28;14.90;;;9.20;;
3677;SDS011;1855;50.934;6.958;2023-03-21T08:31:56;13.25;;;9.40;;
3677;SDS011;1855;50.934;6.958;2023-03-21T08:34:23;13.00;;;9.02;;
3677;SDS011;1855;50.934;6.958;2023-03-21T08:36:50;12.98;;;8.52;;
3677;SDS011;1855;50.934;6.958;2023-03-21T08:39:17;11.15;;;7.88;;
3677;SDS011;1855;50.934;6.958;2023-03-21T08:41:45;12.43;;;8.20;;
3677;SDS011;1855;50.934;6.958;2023-03-21T08:44:12;10.50;;;8.00;;
3677;SDS011;1855;50.934;6.958;2023-03-21T08:46:40;11.45;;;8.07;;
3677;SDS011;1855;50.934;6.958;2023-03-21T08:49:09;13.10;;;8.38;;
3677;SDS011;1855;50.934;6.958;2023-03-21T08:51:36;11.20;;;6.85;;
3677;SDS011;1855;50.934;6.958;2023-03-21T08:54:05;8.05;;;6.53;;
3677;SDS011;1855;50.934;6.958;2023-03-21T08:56:32;12.03;;;7.37;;
3677;SDS011;1855;50.934;6.958;2023-03-21T08:58:58;8.68;;;6.60;;
3677;SDS011;1855;50.934;6.958;2023-03-21T09:01:26;10.38;;;6.90;;
3677;SDS011;1855;50.934;6.958;2023-03-21T09:03:53;10.15;;;7.20;;
3677;SDS011;1855;50.934;6.958;2023-03-21T09:06:21;11.55;;;6.95;;
3677;SDS011;1855;50.934;6.958;2023-03-21T09:08:48;11.60;;;7.20;;
3677;SDS011;1855;50.934;6.958;2023-03-21T09:11:16;11.63;;;7.50;;
3677;SDS011;1855;50.934;6.958;2023-03-21T09:13:43;13.43;;;7.20;;
3677;SDS011;1855;50.934;6.958;2023-03-21T09:16:10;10.33;;;7.03;;
3677;SDS011;1855;50.934;6.958;2023-03-21T09:18:36;9.90;;;7.30;;
3677;SDS011;1855;50.934;6.958;2023-03-21T09:21:13;11.27;;;7.22;;
3677;SDS011;1855;50.934;6.958;2023-03-21T09:23:42;12.52;;;7.07;;
3677;SDS011;1855;50.934;6.958;2023-03-21T09:26:10;11.32;;;6.80;;
3677;SDS011;1855;50.934;6.958;2023-03-21T09:28:37;10.02;;;6.82;;
3677;SDS011;1855;50.934;6.958;2023-03-21T09:31:05;9.45;;;6.68;;
3677;SDS011;1855;50.934;6.958;2023-03-21T09:33:35;10.65;;;6.60;;
3677;SDS011;1855;50.934;6.958;2023-03-21T09:36:02;9.40;;;7.07;;
3677;SDS011;1855;50.934;6.958;2023-03-21T09:38:30;12.07;;;6.55;;
3677;SDS011;1855;50.934;6.958;2023-03-21T09:41:06;11.95;;;6.70;;
3677;SDS011;1855;50.934;6.958;2023-03-21T09:43:45;10.32;;;6.18;;
3677;SDS011;1855;50.934;6.958;2023-03-21T09:46:26;10.70;;;7.25;;
3677;SDS011;1855;50.934;6.958;2023-03-21T09:49:00;9.73;;;6.80;;
3677;SDS011;1855;50.934;6.958;2023-03-21T09:51:32;10.45;;;7.45;;
3677;SDS011;1855;50.934;6.958;2023-03-21T09:54:03;9.00;;;7.30;;
3677;SDS011;1855;50.934;6.958;2023-03-21T09:56:35;10.07;;;7.68;;
3677;SDS011;1855;50.934;6.958;2023-03-21T09:59:06;11.38;;;7.88;;
3677;SDS011;1855;50.934;6.958;2023-03-21T10:01:35;12.40;;;8.35;;
3677;SDS011;1855;50.934;6.958;2023-03-21T10:04:10;10.98;;;7.32;;
3677;SDS011;1855;50.934;6.958;2023-03-21T10:06:39;11.25;;;8.13;;
3677;SDS011;1855;50.934;6.958;2023-03-21T10:09:11;8.88;;;7.65;;
3677;SDS011;1855;50.934;6.958;2023-03-21T10:11:42;13.10;;;7.97;;
3677;SDS011;1855;50.934;6.958;2023-03-21T10:14:13;9.80;;;8.30;;
3677;SDS011;1855;50.934;6.958;2023-03-21T10:16:44;9.68;;;7.28;;
3677;SDS011;1855;50.934;6.958;2023-03-21T10:19:14;10.25;;;7.15;;
3677;SDS011;1855;50.934;6.958;2023-03-21T10:21:45;11.15;;;7.13;;
3677;SDS011;1855;50.934;6.958;2023-03-21T10:24:14;8.68;;;6.80;;
3677;SDS011;1855;50.934;6.958;2023-03-21T10:26:45;9.98;;;7.50;;
3677;SDS011;1855;50.934;6.958;2023-03-21T10:29:13;10.40;;;7.90;;
3677;SDS011;1855;50.934;6.958;2023-03-21T10:31:42;9.00;;;7.47;;
3677;SDS011;1855;50.934;6.958;2023-03-21T10:34:12;11.23;;;8.05;;
3677;SDS011;1855;50.934;6.958;2023-03-21T10:36:43;10.13;;;8.38;;
3677;SDS011;1855;50.934;6.958;2023-03-21T10:39:13;10.65;;;9.00;;
3677;SDS011;1855;50.934;6.958;2023-03-21T10:41:48;10.37;;;8.40;;
3677;SDS011;1855;50.934;6.958;2023-03-21T10:44:15;11.07;;;9.20;;
3677;SDS011;1855;50.934;6.958;2023-03-21T10:46:50;9.85;;;8.73;;
3677;SDS011;1855;50.934;6.958;2023-03-21T10:49:18;11.95;;;9.25;;
3677;SDS011;1855;50.934;6.958;2023-03-21T10:51:46;11.38;;;8.68;;
3677;SDS011;1855;50.934;6.958;2023-03-21T10:54:15;11.68;;;8.30;;
3677;SDS011;1855;50.934;6.958;2023-03-21T10:56:47;9.82;;;8.40;;
3677;SDS011;1855;50.934;6.958;2023-03-21T10:59:21;9.80;;;7.78;;
3677;SDS011;1855;50.934;6.958;2023-03-21T11:01:51;8.95;;;7.10;;
3677;SDS011;1855;50.934;6.958;2023-03-21T11:04:22;7.93;;;6.55;;
3677;SDS011;1855;50.934;6.958;2023-03-21T11:06:52;8.20;;;7.20;;
3677;SDS011;1855;50.934;6.958;2023-03-21T11:09:21;9.35;;;6.47;;
3677;SDS011;1855;50.934;6.958;2023-03-21T11:11:50;8.35;;;6.50;;
3677;SDS011;1855;50.934;6.958;2023-03-21T11:14:24;9.80;;;7.03;;
3677;SDS011;1855;50.934;6.958;2023-03-21T11:16:53;8.18;;;6.25;;
3677;SDS011;1855;50.934;6.958;2023-03-21T11:19:24;8.30;;;6.53;;
3677;SDS011;1855;50.934;6.958;2023-03-21T11:21:55;9.52;;;6.97;;
3677;SDS011;1855;50.934;6.958;2023-03-21T11:24:22;6.88;;;6.28;;
3677;SDS011;1855;50.934;6.958;2023-03-21T11:26:54;6.90;;;6.18;;
3677;SDS011;1855;50.934;6.958;2023-03-21T11:29:25;8.23;;;6.13;;
3677;SDS011;1855;50.934;6.958;2023-03-21T11:31:56;6.47;;;5.70;;
3677;SDS011;1855;50.934;6.958;2023-03-21T11:34:27;9.37;;;6.90;;
3677;SDS011;1855;50.934;6.958;2023-03-21T11:36:59;8.60;;;6.35;;
3677;SDS011;1855;50.934;6.958;2023-03-21T11:39:32;7.93;;;6.20;;
3677;SDS011;1855;50.934;6.958;2023-03-21T11:42:02;7.60;;;6.35;;
3677;SDS011;1855;50.934;6.958;2023-03-21T11:44:31;9.90;;;6.10;;
3677;SDS011;1855;50.934;6.958;2023-03-21T11:47:00;7.47;;;6.13;;
3677;SDS011;1855;50.934;6.958;2023-03-21T11:49:27;7.15;;;6.45;;
3677;SDS011;1855;50.934;6.958;2023-03-21T11:52:01;7.93;;;5.95;;
3677;SDS011;1855;50.934;6.958;2023-03-21T11:54:39;7.68;;;6.20;;
3677;SDS011;1855;50.934;6.958;2023-03-21T11:57:28;8.40;;;6.10;;
3677;SDS011;1855;50.934;6.958;2023-03-21T12:00:02;6.15;;;5.55;;
3677;SDS011;1855;50.934;6.958;2023-03-21T12:02:46;6.53;;;5.80;;
3677;SDS011;1855;50.934;6.958;2023-03-21T12:05:33;7.28;;;5.95;;
3677;SDS011;1855;50.934;6.958;2023-03-21T12:08:03;7.53;;;6.70;;
3677;SDS011;1855;50.934;6.958;2023-03-21T12:10:38;6.55;;;5.80;;
3677;SDS011;1855;50.934;6.958;2023-03-21T12:13:16;8.00;;;5.90;;
3677;SDS011;1855;50.934;6.958;2023-03-21T12:15:54;8.23;;;6.50;;
3677;SDS011;1855;50.934;6.958;2023-03-21T12:18:35;6.20;;;5.55;;
3677;SDS011;1855;50.934;6.958;2023-03-21T12:21:12;7.28;;;5.80;;
3677;SDS011;1855;50.934;6.958;2023-03-21T12:23:46;9.02;;;6.20;;
3677;SDS011;1855;50.934;6.958;2023-03-21T12:26:24;10.70;;;6.32;;
3677;SDS011;1855;50.934;6.958;2023-03-21T12:28:59;6.10;;;5.40;;
3677;SDS011;1855;50.934;6.958;2023-03-21T12:31:50;6.28;;;5.50;;
3677;SDS011;1855;50.934;6.958;2023-03-21T12:34:30;8.82;;;6.18;;
3677;SDS011;1855;50.934;6.958;2023-03-21T12:37:14;6.82;;;5.72;;
3677;SDS011;1855;50.934;6.958;2023-03-21T12:39:47;6.30;;;5.70;;
3677;SDS011;1855;50.934;6.958;2023-03-21T12:42:25;7.60;;;6.20;;
3677;SDS011;1855;50.934;6.958;2023-03-21T12:45:12;6.10;;;5.50;;
3677;SDS011;1855;50.934;6.958;2023-03-21T12:47:44;8.50;;;5.55;;
3677;SDS011;1855;50.934;6.958;2023-03-21T12:50:17;6.70;;;5.10;;
3677;SDS011;1855;50.934;6.958;2023-03-21T12:52:49;6.37;;;5.10;;
3677;SDS011;1855;50.934;6.958;2023-03-21T12:55:19;9.30;;;5.50;;
3677;SDS011;1855;50.934;6.958;2023-03-21T12:57:48;4.82;;;4.25;;
3677;SDS011;1855;50.934;6.958;2023-03-21T13:00:21;5.80;;;4.75;;
3677;SDS011;1855;50.934;6.958;2023-03-21T13:02:51;6.97;;;4.95;;
3677;SDS011;1855;50.934;6.958;2023-03-21T13:05:20;7.07;;;4.80;;
3677;SDS011;1855;50.934;6.958;2023-03-21T13:07:55;6.10;;;5.20;;
3677;SDS011;1855;50.934;6.958;2023-03-21T13:10:25;6.10;;;5.35;;
3677;SDS011;1855;50.934;6.958;2023-03-21T13:13:03;6.50;;;5.20;;
3677;SDS011;1855;50.934;6.958;2023-03-21T13:18:30;5.80;;;4.87;;
3677;SDS011;1855;50.934;6.958;2023-03-21T13:21:03;5.63;;;4.90;;
3677;SDS011;1855;50.934;6.958;2023-03-21T13:23:37;7.00;;;5.00;;
3677;SDS011;1855;50.934;6.958;2023-03-21T13:26:06;6.50;;;5.03;;
3677;SDS011;1855;50.934;6.958;2023-03-21T13:28:35;7.63;;;5.38;;
3677;SDS011;1855;50.934;6.958;2023-03-21T13:31:16;5.75;;;4.60;;
3677;SDS011;1855;50.934;6.958;2023-03-21T13:33:44;5.15;;;4.65;;
3677;SDS011;1855;50.934;6.958;2023-03-21T13:36:14;5.40;;;4.20;;
3677;SDS011;1855;50.934;6.958;2023-03-21T13:38:47;5.45;;;4.75;;
3677;SDS011;1855;50.934;6.958;2023-03-21T13:41:16;6.28;;;4.63;;
3677;SDS011;1855;50.934;6.958;2023-03-21T13:43:51;6.10;;;5.50;;
3677;SDS011;1855;50.934;6.958;2023-03-21T13:46:36;5.53;;;4.50;;
3677;SDS011;1855;50.934;6.958;2023-03-21T13:49:13;5.40;;;4.90;;
3677;SDS011;1855;50.934;6.958;2023-03-21T13:51:50;5.05;;;4.50;;
3677;SDS011;1855;50.934;6.958;2023-03-21T13:54:20;4.32;;;3.95;;
3677;SDS011;1855;50.934;6.958;2023-03-21T13:56:51;6.30;;;4.60;;
3677;SDS011;1855;50.934;6.958;2023-03-21T13:59:34;6.85;;;5.15;;
3677;SDS011;1855;50.934;6.958;2023-03-21T14:02:16;5.60;;;4.60;;
3677;SDS011;1855;50.934;6.958;2023-03-21T14:04:51;6.00;;;4.32;;
3677;SDS011;1855;50.934;6.958;2023-03-21T14:07:22;5.77;;;4.43;;
3677;SDS011;1855;50.934;6.958;2023-03-21T14:09:52;4.68;;;4.00;;
3677;SDS011;1855;50.934;6.958;2023-03-21T14:12:23;5.50;;;4.50;;
3677;SDS011;1855;50.934;6.958;2023-03-21T14:14:52;5.65;;;4.40;;
3677;SDS011;1855;50.934;6.958;2023-03-21T14:17:26;6.28;;;4.68;;
3677;SDS011;1855;50.934;6.958;2023-03-21T14:19:56;5.00;;;4.50;;
3677;SDS011;1855;50.934;6.958;2023-03-21T14:22:26;5.57;;;4.20;;
3677;SDS011;1855;50.934;6.958;2023-03-21T14:24:55;4.20;;;3.80;;
3677;SDS011;1855;50.934;6.958;2023-03-21T14:27:23;5.63;;;4.20;;
3677;SDS011;1855;50.934;6.958;2023-03-21T14:29:52;6.28;;;4.47;;
3677;SDS011;1855;50.934;6.958;2023-03-21T14:32:20;5.60;;;4.55;;
3677;SDS011;1855;50.934;6.958;2023-03-21T14:34:51;4.70;;;4.15;;
3677;SDS011;1855;50.934;6.958;2023-03-21T14:37:27;5.78;;;4.30;;
3677;SDS011;1855;50.934;6.958;2023-03-21T14:39:56;4.53;;;4.13;;
3677;SDS011;1855;50.934;6.958;2023-03-21T14:42:24;7.13;;;4.40;;
3677;SDS011;1855;50.934;6.958;2023-03-21T14:44:51;4.70;;;4.30;;
3677;SDS011;1855;50.934;6.958;2023-03-21T14:47:20;5.95;;;4.50;;
3677;SDS011;1855;50.934;6.958;2023-03-21T14:49:49;4.70;;;4.22;;
3677;SDS011;1855;50.934;6.958;2023-03-21T14:52:19;6.05;;;4.38;;
3677;SDS011;1855;50.934;6.958;2023-03-21T14:54:48;4.95;;;4.20;;
3677;SDS011;1855;50.934;6.958;2023-03-21T14:57:18;5.60;;;4.30;;
3677;SDS011;1855;50.934;6.958;2023-03-21T14:59:46;4.50;;;4.10;;
3677;SDS011;1855;50.934;6.958;2023-03-21T15:02:17;4.93;;;4.03;;
3677;SDS011;1855;50.934;6.958;2023-03-21T15:04:47;5.85;;;4.30;;
3677;SDS011;1855;50.934;6.958;2023-03-21T15:07:25;4.30;;;3.90;;
3677;SDS011;1855;50.934;6.958;2023-03-21T15:09:54;4.75;;;3.85;;
3677;SDS011;1855;50.934;6.958;2023-03-21T15:12:22;5.10;;;3.90;;
3677;SDS011;1855;50.934;6.958;2023-03-21T15:14:49;4.38;;;3.90;;
3677;SDS011;1855;50.934;6.958;2023-03-21T15:17:16;5.03;;;3.90;;
3677;SDS011;1855;50.934;6.958;2023-03-21T15:19:44;4.40;;;3.72;;
3677;SDS011;1855;50.934;6.958;2023-03-21T15:22:13;4.50;;;3.75;;
3677;SDS011;1855;50.934;6.958;2023-03-21T15:24:48;4.70;;;3.67;;
3677;SDS011;1855;50.934;6.958;2023-03-21T15:27:18;5.20;;;3.88;;
3677;SDS011;1855;50.934;6.958;2023-03-21T15:29:48;4.20;;;3.22;;
3677;SDS011;1855;50.934;6.958;2023-03-21T15:32:18;5.95;;;3.95;;
3677;SDS011;1855;50.934;6.958;2023-03-21T15:34:47;4.43;;;3.63;;
3677;SDS011;1855;50.934;6.958;2023-03-21T15:37:16;4.10;;;3.70;;
3677;SDS011;1855;50.934;6.958;2023-03-21T15:39:48;4.10;;;3.60;;
3677;SDS011;1855;50.934;6.958;2023-03-21T15:42:26;5.23;;;3.80;;
3677;SDS011;1855;50.934;6.958;2023-03-21T15:44:56;4.65;;;3.78;;